Aughton, United Kingdom

4:16 PM BST on July 26, 2016 (GMT +0100)
Eco Garden | | Change Station

Elev 197 ft 53.57 °N, 2.87 °W | Updated 26 seconds ago

Scattered Clouds
Scattered Clouds
65.7 °F
Feels Like 65.7 °F
N
8.1
Wind Variable Wind from West
Gusts 9.8 mph

Today
High -- | Low -- °F
--% Chance of Precip.
Yesterday
High -- | Low -- °F
Precip. -- in
Pressure 30.06 in
Visibility 6.2 miles
Clouds Scattered Clouds 2600 ft
Dew Point 58 °F
Humidity 77%
Rainfall 0.07 in
Snow Depth Not available.
5:17 AM 9:17 PM
Waning Gibbous, 54% visible
METAR EGGP 261450Z 24011KT 9999 SCT026 18/12 Q1018
Pressure 30.06 in
Visibility 6.2 miles
Clouds Scattered Clouds 2600 ft
Dew Point 58 °F
Humidity 77%
Rainfall 0.07 in
Snow Depth Not available.
5:17 AM 9:17 PM
Waning Gibbous, 54% visible
METAR EGGP 261450Z 24011KT 9999 SCT026 18/12 Q1018

10-Day Weather Forecast

×

Almanac

Astronomy

Jul. 26, 2016 Rise Set
Actual Time
Civil Twilight
Nautical Twilight
Astronomical Twilight
Moon
Length of Visible Light
Length of Day
Tomorrow will be .
, % of the Moon is Illuminated

Today's Extremes

Country Highs Country Lows

Community

WunderPhotos

Upload Photos

1,927,612 photos uploaded!

WunderBlog® & News

Nearby

Air Quality

  Air Quality AQ Index Pollutant
Not available.

Snow Depth

Station Depth Elevation

Earthquake Activity

City Distance Mag. Time & Date
Minimum magnitude displayed is 2.5.

Coastal Water Temperatures

Place Temperature

Stations

Nearby Weather Stations

Station Location Temp. Windchill Dew Point Humidity Wind Precip. Elev Updated Type